Time;durP1;ratioP1;P1;durP2;ratioP2;P2;SDS_P1;SDS_P2;PMS_P1;PMS_P2;Temp;Humidity;BMP_temperature;BMP_pressure;BME280_temperature;BME280_humidity;BME280_pressure;Samples;Min_cycle;Max_cycle;Signal;HPM_P1;HPM_P2
2022/01/04 00:00:11;;;;;;;5.78;0.70;;;14.20;61.50;;;;;;5110832;28;20043;-67
2022/01/04 00:02:36;;;;;;;2.78;0.55;;;14.10;61.50;;;;;;5111249;28;20035;-67
2022/01/04 00:05:04;;;;;;;2.40;0.63;;;14.20;61.60;;;;;;5110704;28;20486;-67
2022/01/04 00:07:30;;;;;;;3.13;0.50;;;14.20;61.50;;;;;;5112140;28;20394;-67
2022/01/04 00:10:00;;;;;;;4.32;1.23;;;14.10;61.50;;;;;;5110892;28;20474;-67
2022/01/04 00:15:11;;;;;;;4.55;1.08;;;14.10;61.60;;;;;;5110483;28;20429;-67
2022/01/04 00:17:40;;;;;;;4.35;0.40;;;14.10;61.60;;;;;;5110662;28;20044;-67
2022/01/04 00:20:06;;;;;;;3.45;0.50;;;14.10;61.60;;;;;;5110842;28;20126;-67
2022/01/04 00:22:33;;;;;;;3.10;0.40;;;14.10;61.60;;;;;;5114060;28;20042;-67
2022/01/04 00:24:58;;;;;;;2.65;0.50;;;14.10;61.60;;;;;;5114613;28;20051;-68
2022/01/04 00:27:24;;;;;;;5.25;0.70;;;14.10;61.70;;;;;;5114691;28;20039;-67
2022/01/04 00:29:53;;;;;;;4.20;0.65;;;14.10;61.70;;;;;;5114386;28;20416;-67
2022/01/04 00:32:21;;;;;;;3.05;0.68;;;14.10;62.40;;;;;;5115517;28;20039;-67
2022/01/04 00:34:47;;;;;;;4.60;0.77;;;14.10;61.70;;;;;;5114066;28;20052;-67
2022/01/04 00:37:13;;;;;;;3.10;0.63;;;14.10;61.70;;;;;;5115451;28;20486;-67
2022/01/04 00:39:39;;;;;;;4.63;0.60;;;14.10;61.70;;;;;;5114194;28;20066;-67
2022/01/04 00:42:05;;;;;;;4.22;0.77;;;14.10;61.70;;;;;;5114395;28;20071;-67
2022/01/04 00:44:33;;;;;;;2.40;0.40;;;14.10;61.70;;;;;;5114113;28;20475;-67
2022/01/04 00:46:59;;;;;;;3.13;0.60;;;14.10;61.70;;;;;;5115304;28;20043;-67
2022/01/04 00:49:25;;;;;;;4.45;0.65;;;14.10;61.70;;;;;;5115353;28;20035;-67
2022/01/04 00:51:53;;;;;;;4.03;0.70;;;14.10;61.70;;;;;;5115097;28;20032;-67
2022/01/04 00:54:20;;;;;;;3.22;0.40;;;14.10;61.70;;;;;;5114066;28;20043;-67
2022/01/04 00:56:47;;;;;;;4.43;1.05;;;14.10;61.70;;;;;;5113731;28;20039;-67
2022/01/04 00:59:17;;;;;;;2.40;0.60;;;14.10;61.70;;;;;;5115140;28;20181;-67
2022/01/04 01:01:42;;;;;;;2.28;0.60;;;14.10;61.70;;;;;;5114992;28;20044;-67
2022/01/04 01:04:09;;;;;;;5.25;0.70;;;14.00;61.70;;;;;;5114002;28;20099;-67
2022/01/04 01:06:35;;;;;;;2.10;0.55;;;14.00;61.60;;;;;;5114789;28;20047;-67
2022/01/04 01:09:01;;;;;;;3.72;0.52;;;14.10;61.70;;;;;;5113564;28;20040;-67
2022/01/04 01:11:26;;;;;;;4.50;0.60;;;14.00;61.70;;;;;;5114963;28;20039;-67
2022/01/04 01:13:52;;;;;;;6.35;0.70;;;14.10;61.80;;;;;;5113422;28;20486;-67
2022/01/04 01:16:18;;;;;;;2.60;0.50;;;14.00;61.70;;;;;;5114815;27;20031;-67
2022/01/04 01:18:48;;;;;;;1.88;0.47;;;14.00;61.70;;;;;;5113701;28;20043;-67
2022/01/04 01:21:16;;;;;;;3.63;0.70;;;14.00;61.70;;;;;;5114557;28;20387;-67
2022/01/04 01:23:42;;;;;;;4.10;0.70;;;14.10;61.70;;;;;;5114690;28;20038;-67
2022/01/04 01:26:09;;;;;;;2.88;0.55;;;14.00;61.60;;;;;;5113669;28;20493;-66
2022/01/04 01:28:36;;;;;;;2.90;0.50;;;14.10;61.80;;;;;;5114520;28;20089;-67
2022/01/04 01:31:02;;;;;;;2.80;0.55;;;14.00;61.70;;;;;;5113317;28;20495;-67
2022/01/04 01:33:28;;;;;;;2.97;0.73;;;14.00;61.70;;;;;;5114248;28;20364;-67
2022/01/04 01:35:55;;;;;;;3.95;0.52;;;14.00;61.70;;;;;;5112716;28;20055;-67
2022/01/04 01:38:21;;;;;;;2.15;0.40;;;14.00;61.80;;;;;;5114250;28;20035;-66
2022/01/04 01:40:48;;;;;;;3.88;0.80;;;14.00;61.70;;;;;;5114439;28;20040;-67
2022/01/04 01:43:14;;;;;;;4.30;0.80;;;14.00;61.80;;;;;;5113127;28;20040;-67
2022/01/04 01:45:40;;;;;;;3.13;0.60;;;14.00;61.80;;;;;;5113150;28;20071;-67
2022/01/04 01:48:06;;;;;;;3.75;0.88;;;14.00;61.80;;;;;;5113090;28;20136;-67
2022/01/04 01:50:32;;;;;;;5.90;0.63;;;14.00;61.80;;;;;;5114081;27;20089;-67
2022/01/04 01:52:59;;;;;;;3.38;0.75;;;14.00;61.90;;;;;;5112767;28;20506;-67
2022/01/04 01:55:26;;;;;;;4.82;0.43;;;14.00;61.90;;;;;;5112630;28;20055;-67
2022/01/04 01:57:52;;;;;;;4.65;1.33;;;14.00;61.90;;;;;;5114054;28;20450;-67
2022/01/04 02:00:22;;;;;;;3.85;0.73;;;14.00;61.90;;;;;;5112582;28;20071;-67
2022/01/04 02:02:48;;;;;;;4.82;0.80;;;14.00;61.90;;;;;;5112662;28;20114;-67
2022/01/04 02:05:14;;;;;;;5.78;0.93;;;14.00;61.90;;;;;;5112393;28;20047;-67
2022/01/04 02:07:42;;;;;;;4.32;0.40;;;14.00;61.90;;;;;;5113714;28;20042;-66
2022/01/04 02:10:09;;;;;;;4.22;1.02;;;14.00;61.90;;;;;;5113820;28;20035;-67
2022/01/04 02:15:17;;;;;;;2.15;0.75;;;13.90;61.90;;;;;;5130212;27;20391;-66
2022/01/04 02:17:44;;;;;;;3.67;0.60;;;13.90;61.90;;;;;;5128970;28;20043;-66
2022/01/04 02:20:11;;;;;;;2.80;0.40;;;14.00;61.90;;;;;;5129146;28;20532;-67
2022/01/04 02:22:38;;;;;;;2.50;0.50;;;14.40;61.30;;;;;;5129119;28;20069;-67
2022/01/04 02:25:04;;;;;;;2.95;0.68;;;15.30;59.10;;;;;;5129106;28;20458;-67
2022/01/04 02:27:34;;;;;;;3.60;0.47;;;16.20;56.80;;;;;;5128769;27;20067;-67
2022/01/04 02:29:59;;;;;;;1.83;0.30;;;17.00;54.70;;;;;;5130087;27;20028;-67
2022/01/04 02:32:25;;;;;;;2.33;0.60;;;17.70;53.10;;;;;;5128734;28;20414;-67
2022/01/04 02:34:52;;;;;;;1.80;0.32;;;18.30;51.70;;;;;;5128426;28;20051;-67
2022/01/04 02:37:20;;;;;;;3.28;0.50;;;18.90;50.40;;;;;;5128923;28;20035;-67
2022/01/04 02:39:46;;;;;;;3.35;0.35;;;19.60;49.90;;;;;;5129767;27;20045;-67
2022/01/04 02:42:11;;;;;;;2.45;0.90;;;20.10;47.90;;;;;;5129928;28;20035;-67
2022/01/04 02:44:37;;;;;;;2.35;0.40;;;20.50;48.00;;;;;;5128658;28;20092;-67
2022/01/04 02:47:03;;;;;;;2.45;0.20;;;20.60;46.90;;;;;;5128475;28;20506;-67
2022/01/04 02:49:29;;;;;;;1.45;0.40;;;20.60;46.80;;;;;;5129606;27;20038;-67
2022/01/04 02:51:54;;;;;;;1.55;0.35;;;20.70;46.80;;;;;;5129537;28;20527;-67
2022/01/04 02:54:23;;;;;;;2.38;0.40;;;20.70;46.60;;;;;;5128423;28;20047;-67
2022/01/04 02:56:49;;;;;;;1.30;0.40;;;20.70;46.40;;;;;;5128108;28;20039;-67
2022/01/04 02:59:14;;;;;;;3.50;0.30;;;20.80;46.20;;;;;;5128272;28;20047;-67
2022/01/04 03:01:40;;;;;;;1.65;0.40;;;20.80;46.20;;;;;;5128051;28;20039;-68
2022/01/04 03:04:07;;;;;;;3.17;0.30;;;20.80;46.20;;;;;;5129232;28;20073;-67
2022/01/04 03:06:34;;;;;;;1.30;0.40;;;20.80;46.20;;;;;;5129343;27;20047;-67
2022/01/04 03:09:00;;;;;;;2.08;0.30;;;20.70;46.20;;;;;;5129419;27;20031;-67
2022/01/04 03:11:26;;;;;;;2.55;0.40;;;20.60;46.30;;;;;;5128157;28;20031;-67
2022/01/04 03:13:51;;;;;;;2.13;0.20;;;20.50;46.40;;;;;;5127490;28;20414;-67
2022/01/04 03:16:17;;;;;;;2.35;0.50;;;20.30;46.70;;;;;;5127953;28;20071;-67
2022/01/04 03:19:14;;;;;;;1.55;0.30;;;20.20;47.00;;;;;;5128977;28;20433;-67
2022/01/04 03:21:29;;;;;;;4.38;0.70;;;20.10;47.30;;;;;;5127465;28;20501;-67
2022/01/04 03:23:55;;;;;;;2.42;0.32;;;19.90;47.60;;;;;;5127833;28;20039;-67
2022/01/04 03:26:21;;;;;;;2.05;0.30;;;19.70;48.60;;;;;;5116465;28;20092;-67
2022/01/04 03:28:46;;;;;;;3.45;0.50;;;19.60;48.10;;;;;;5115307;28;20402;-67
2022/01/04 03:31:12;;;;;;;2.90;0.50;;;19.40;48.30;;;;;;5114102;28;20035;-67
2022/01/04 03:33:37;;;;;;;2.28;0.50;;;19.30;48.60;;;;;;5113680;28;20123;-67
2022/01/04 03:36:04;;;;;;;1.67;0.40;;;19.20;48.80;;;;;;5114139;28;20032;-67
2022/01/04 03:38:30;;;;;;;3.35;0.60;;;19.00;49.00;;;;;;5114088;28;20070;-67
2022/01/04 03:40:57;;;;;;;2.67;0.32;;;18.90;49.30;;;;;;5115075;28;20036;-67
2022/01/04 03:43:22;;;;;;;2.53;0.52;;;18.80;49.50;;;;;;5115012;28;20092;-67
2022/01/04 03:45:49;;;;;;;2.30;0.55;;;18.70;49.70;;;;;;5113575;28;20475;-66
2022/01/04 03:48:15;;;;;;;3.15;0.38;;;18.60;49.90;;;;;;5113811;28;20116;-67
2022/01/04 03:50:41;;;;;;;4.88;0.55;;;18.50;50.20;;;;;;5115013;28;20489;-67
2022/01/04 03:53:07;;;;;;;3.83;0.73;;;18.30;50.30;;;;;;5114852;28;20488;-66
2022/01/04 03:55:34;;;;;;;4.80;0.65;;;18.20;50.70;;;;;;5113521;28;20035;-67
2022/01/04 03:57:59;;;;;;;3.65;0.30;;;18.10;51.00;;;;;;5113635;28;20051;-66
2022/01/04 04:00:26;;;;;;;3.83;0.40;;;18.00;51.30;;;;;;5113422;28;20036;-67
2022/01/04 04:02:51;;;;;;;2.13;0.30;;;17.80;51.60;;;;;;5114848;28;20088;-67
2022/01/04 04:05:17;;;;;;;3.20;0.60;;;17.70;51.90;;;;;;5114567;28;20039;-67
2022/01/04 04:07:43;;;;;;;2.50;0.45;;;17.50;52.30;;;;;;5113475;28;20040;-67
2022/01/04 04:10:09;;;;;;;2.80;0.80;;;17.40;52.50;;;;;;5113404;28;20043;-67
2022/01/04 04:12:35;;;;;;;4.57;1.15;;;17.30;52.90;;;;;;5114384;28;20039;-67
2022/01/04 04:15:04;;;;;;;3.33;0.60;;;17.10;53.20;;;;;;5114492;28;20051;-67
2022/01/04 04:17:31;;;;;;;2.47;0.70;;;17.00;53.50;;;;;;5113164;28;20487;-67
2022/01/04 04:19:57;;;;;;;2.33;0.90;;;16.90;53.80;;;;;;5114287;28;20071;-67
2022/01/04 04:22:22;;;;;;;4.30;1.13;;;16.70;54.10;;;;;;5112921;28;20078;-67
2022/01/04 04:24:48;;;;;;;2.08;0.68;;;16.70;54.40;;;;;;5114105;28;20039;-67
2022/01/04 04:27:14;;;;;;;2.90;0.90;;;16.50;54.70;;;;;;5113272;28;20040;-67
2022/01/04 04:29:40;;;;;;;3.75;0.85;;;16.40;54.90;;;;;;5113914;28;20035;-67
2022/01/04 04:32:07;;;;;;;3.42;0.70;;;16.30;55.10;;;;;;5112745;28;20040;-67
2022/01/04 04:34:33;;;;;;;4.07;1.42;;;16.30;55.50;;;;;;5112606;28;20380;-66
2022/01/04 04:36:59;;;;;;;3.15;1.00;;;16.20;55.70;;;;;;5111867;28;20046;-67
2022/01/04 04:39:24;;;;;;;4.10;1.33;;;16.10;55.80;;;;;;5114011;28;20127;-67
2022/01/04 04:41:50;;;;;;;4.07;1.10;;;16.10;56.10;;;;;;5114142;28;20032;-67
2022/01/04 04:44:21;;;;;;;1.65;0.82;;;16.00;56.20;;;;;;5112388;28;20042;-67
2022/01/04 04:46:47;;;;;;;3.58;0.90;;;15.90;56.40;;;;;;5112669;28;20047;-66
2022/01/04 04:49:13;;;;;;;3.53;0.90;;;15.90;56.60;;;;;;5112311;28;20560;-67
2022/01/04 04:51:39;;;;;;;2.03;0.88;;;15.80;56.70;;;;;;5112360;28;20051;-67
2022/01/04 04:54:05;;;;;;;4.18;0.88;;;15.80;56.90;;;;;;5112220;28;20126;-67
2022/01/04 04:56:30;;;;;;;2.53;0.98;;;15.80;57.00;;;;;;5113548;28;20124;-67
2022/01/04 04:58:57;;;;;;;2.63;0.80;;;15.70;57.10;;;;;;5112385;28;20043;-67
2022/01/04 05:01:22;;;;;;;3.05;0.90;;;15.70;57.20;;;;;;5113522;28;20356;-67
2022/01/04 05:03:51;;;;;;;3.40;1.20;;;15.60;57.30;;;;;;5112268;28;20088;-68
2022/01/04 05:06:17;;;;;;;3.00;1.00;;;15.60;57.40;;;;;;5112284;28;20036;-67
2022/01/04 05:08:43;;;;;;;3.20;0.70;;;15.50;57.50;;;;;;5113568;28;20402;-67
2022/01/04 05:11:08;;;;;;;2.58;0.82;;;15.50;57.60;;;;;;5113295;28;20035;-67
2022/01/04 05:13:34;;;;;;;4.60;1.02;;;15.50;57.80;;;;;;5111606;28;20040;-67
2022/01/04 05:16:00;;;;;;;2.38;0.93;;;15.40;57.80;;;;;;5113037;28;20051;-67
2022/01/04 05:18:25;;;;;;;2.17;0.82;;;15.40;58.00;;;;;;5113024;28;20111;-67
2022/01/04 05:20:51;;;;;;;2.58;1.23;;;15.40;58.10;;;;;;5113160;28;20035;-67
2022/01/04 05:23:17;;;;;;;2.55;1.15;;;15.40;58.20;;;;;;5113021;28;20047;-67
2022/01/04 05:25:42;;;;;;;4.18;1.20;;;15.30;58.30;;;;;;5111973;28;20039;-67
2022/01/04 05:28:08;;;;;;;4.10;1.13;;;15.30;58.40;;;;;;5111899;28;20502;-67
2022/01/04 05:30:34;;;;;;;2.70;1.40;;;15.30;58.60;;;;;;5111799;28;20474;-67
2022/01/04 05:32:59;;;;;;;5.18;1.40;;;15.20;58.70;;;;;;5112760;28;20051;-67
2022/01/04 05:35:26;;;;;;;4.35;1.45;;;15.20;58.80;;;;;;5111425;28;20035;-67
2022/01/04 05:37:52;;;;;;;4.05;1.30;;;15.10;58.90;;;;;;5113243;28;20047;-67
2022/01/04 05:40:18;;;;;;;3.17;1.20;;;15.10;59.00;;;;;;5112708;28;20036;-67
2022/01/04 05:42:43;;;;;;;3.00;1.00;;;15.10;59.00;;;;;;5111458;28;20036;-67
2022/01/04 05:45:09;;;;;;;1.73;1.02;;;15.00;59.10;;;;;;5113055;28;20047;-67
2022/01/04 05:47:35;;;;;;;3.05;1.00;;;15.00;59.20;;;;;;5111223;28;20103;-67
2022/01/04 05:50:05;;;;;;;2.45;1.40;;;15.00;59.30;;;;;;5111219;28;20055;-66
2022/01/04 05:52:32;;;;;;;4.18;1.55;;;15.00;59.40;;;;;;5112750;28;20176;-67
2022/01/04 05:55:04;;;;;;;3.55;1.70;;;15.00;59.40;;;;;;5111229;28;20368;-67
2022/01/04 05:57:32;;;;;;;4.60;1.05;;;14.90;59.40;;;;;;5111084;28;20047;-67
2022/01/04 05:59:59;;;;;;;3.78;1.27;;;15.00;59.50;;;;;;5111472;28;20035;-67
2022/01/04 06:02:25;;;;;;;2.78;0.98;;;14.90;59.50;;;;;;5111577;28;20044;-67
2022/01/04 06:04:53;;;;;;;4.43;1.48;;;14.90;59.50;;;;;;5111099;28;20513;-67
2022/01/04 06:07:18;;;;;;;5.53;1.85;;;14.90;59.50;;;;;;5111050;28;20482;-67
2022/01/04 06:09:50;;;;;;;2.20;1.17;;;14.90;59.50;;;;;;5112331;28;20096;-67
2022/01/04 06:15:17;;;;;;;4.55;1.60;;;14.90;60.20;;;;;;5130045;27;20715;-67
2022/01/04 06:17:47;;;;;;;3.65;1.60;;;14.90;59.50;;;;;;5129068;28;20047;-67
2022/01/04 06:20:16;;;;;;;2.53;0.98;;;14.90;59.60;;;;;;5130396;27;20035;-67
2022/01/04 06:22:42;;;;;;;4.57;1.20;;;14.90;59.60;;;;;;5128784;28;20046;-67
2022/01/04 06:25:11;;;;;;;2.95;1.40;;;14.80;59.60;;;;;;5128875;28;20517;-67
2022/01/04 06:27:37;;;;;;;3.00;1.10;;;14.80;59.70;;;;;;5128741;28;20114;-67
2022/01/04 06:30:04;;;;;;;4.03;1.10;;;14.80;59.70;;;;;;5128696;28;20545;-67
2022/01/04 06:32:30;;;;;;;3.17;1.92;;;14.80;59.80;;;;;;5128618;28;20035;-67
2022/01/04 06:34:56;;;;;;;2.38;0.90;;;14.80;59.80;;;;;;5128549;28;20040;-67
2022/01/04 06:37:21;;;;;;;2.58;1.13;;;14.80;59.80;;;;;;5129947;28;20631;-67
2022/01/04 06:39:47;;;;;;;3.45;1.63;;;14.70;59.90;;;;;;5128895;28;20046;-67
2022/01/04 06:42:13;;;;;;;3.13;1.40;;;14.70;60.60;;;;;;5128594;27;20051;-67
2022/01/04 06:44:41;;;;;;;2.38;1.15;;;14.70;60.00;;;;;;5128405;28;20035;-67
2022/01/04 06:47:07;;;;;;;5.35;1.70;;;14.70;60.00;;;;;;5128635;27;20051;-67
2022/01/04 06:49:33;;;;;;;3.80;1.05;;;14.70;60.00;;;;;;5128629;28;20395;-67
2022/01/04 06:51:59;;;;;;;3.47;1.00;;;14.70;60.00;;;;;;5129670;28;20043;-67
2022/01/04 06:54:25;;;;;;;3.80;1.50;;;14.60;60.00;;;;;;5129509;28;20034;-67
2022/01/04 06:56:53;;;;;;;3.60;1.45;;;14.60;60.00;;;;;;5128471;27;20382;-67
2022/01/04 06:59:19;;;;;;;2.10;1.00;;;14.60;60.10;;;;;;5127990;28;20595;-67
2022/01/04 07:01:45;;;;;;;2.55;1.27;;;14.60;60.10;;;;;;5128483;28;20114;-67
2022/01/04 07:04:11;;;;;;;3.00;1.55;;;14.70;60.20;;;;;;5128024;28;20164;-67
2022/01/04 07:06:37;;;;;;;3.80;1.65;;;14.60;60.20;;;;;;5129390;27;20389;-67
2022/01/04 07:09:04;;;;;;;3.28;1.83;;;14.60;60.20;;;;;;5129208;28;20039;-67
2022/01/04 07:11:30;;;;;;;5.35;1.75;;;14.60;60.30;;;;;;5129341;27;20027;-67
2022/01/04 07:13:56;;;;;;;6.18;1.30;;;14.60;60.30;;;;;;5127306;28;20050;-66
2022/01/04 07:16:21;;;;;;;3.28;1.77;;;14.60;60.40;;;;;;5127791;28;20055;-67
2022/01/04 07:18:49;;;;;;;4.85;1.33;;;14.60;60.30;;;;;;5129212;27;20118;-67
2022/01/04 07:21:17;;;;;;;3.97;1.60;;;14.50;60.30;;;;;;5128045;28;20402;-67
2022/01/04 07:23:43;;;;;;;3.78;1.17;;;14.50;60.40;;;;;;5127683;28;20035;-67
2022/01/04 07:26:14;;;;;;;3.28;1.48;;;14.50;60.40;;;;;;5116011;28;20039;-67
2022/01/04 07:28:42;;;;;;;2.35;1.30;;;14.50;60.50;;;;;;5115185;28;20073;-68
2022/01/04 07:31:08;;;;;;;2.88;1.60;;;14.50;60.50;;;;;;5115465;28;20464;-67
2022/01/04 07:33:35;;;;;;;3.22;1.42;;;14.50;60.50;;;;;;5114032;28;20040;-67
2022/01/04 07:36:01;;;;;;;5.50;1.50;;;14.50;60.60;;;;;;5113757;28;20038;-67
2022/01/04 07:38:27;;;;;;;2.47;1.60;;;14.50;60.60;;;;;;5115127;28;20583;-67
2022/01/04 07:40:52;;;;;;;4.20;1.80;;;14.40;60.60;;;;;;5115373;28;20035;-67
2022/01/04 07:43:18;;;;;;;4.40;2.17;;;14.40;60.60;;;;;;5114963;28;20039;-67
2022/01/04 07:45:44;;;;;;;4.28;1.48;;;14.40;60.60;;;;;;5113811;28;20119;-67
2022/01/04 07:48:10;;;;;;;4.47;2.30;;;14.50;60.70;;;;;;5113892;28;20042;-67
2022/01/04 07:50:38;;;;;;;4.13;1.80;;;14.50;60.80;;;;;;5114921;28;20040;-67
2022/01/04 07:53:05;;;;;;;2.75;2.03;;;14.40;60.70;;;;;;5113774;28;20043;-67
2022/01/04 07:55:30;;;;;;;3.63;2.17;;;14.50;60.80;;;;;;5113626;28;20027;-67
2022/01/04 07:57:59;;;;;;;3.97;1.80;;;14.40;60.70;;;;;;5114591;28;20527;-67
2022/01/04 08:00:26;;;;;;;2.90;1.73;;;14.40;60.70;;;;;;5113458;28;20035;-68
2022/01/04 08:02:52;;;;;;;3.40;1.67;;;14.40;60.80;;;;;;5113577;28;20141;-67
2022/01/04 08:05:18;;;;;;;4.30;2.40;;;14.40;60.80;;;;;;5114550;28;20350;-67
2022/01/04 08:07:44;;;;;;;4.35;2.25;;;14.40;60.80;;;;;;5113469;28;20296;-67
2022/01/04 08:10:10;;;;;;;5.55;1.80;;;14.30;60.80;;;;;;5113326;28;20551;-67
2022/01/04 08:12:36;;;;;;;2.78;1.50;;;14.40;60.90;;;;;;5113443;28;20039;-67
2022/01/04 08:15:04;;;;;;;4.32;1.83;;;14.40;60.90;;;;;;5113848;28;20388;-67
2022/01/04 08:17:31;;;;;;;3.58;1.95;;;14.30;60.90;;;;;;5114223;28;20047;-67
2022/01/04 08:19:57;;;;;;;4.18;2.20;;;14.40;61.00;;;;;;5113233;28;20035;-67
2022/01/04 08:22:23;;;;;;;2.72;1.92;;;14.30;60.90;;;;;;5113225;28;20043;-67
2022/01/04 08:24:48;;;;;;;4.75;2.38;;;14.30;60.90;;;;;;5112889;28;20475;-67
2022/01/04 08:27:14;;;;;;;3.88;1.95;;;14.30;60.90;;;;;;5114049;28;20031;-67
2022/01/04 08:29:40;;;;;;;2.95;1.48;;;14.30;60.90;;;;;;5113977;28;20092;-66
2022/01/04 08:32:06;;;;;;;3.47;1.63;;;14.30;61.00;;;;;;5112700;28;20035;-67
2022/01/04 08:34:34;;;;;;;4.50;1.90;;;14.30;61.00;;;;;;5112688;28;20115;-67
2022/01/04 08:37:00;;;;;;;2.63;1.63;;;14.30;61.00;;;;;;5111578;28;20061;-67
2022/01/04 08:39:27;;;;;;;2.13;1.38;;;14.30;60.90;;;;;;5112547;28;20048;-67
2022/01/04 08:41:55;;;;;;;3.55;1.65;;;14.30;61.00;;;;;;5113741;28;20078;-67
2022/01/04 08:44:22;;;;;;;4.78;2.30;;;14.30;61.00;;;;;;5113731;28;20043;-67
2022/01/04 08:46:48;;;;;;;3.17;2.00;;;14.30;60.90;;;;;;5112644;28;20051;-67
2022/01/04 08:49:14;;;;;;;4.75;2.20;;;14.30;61.00;;;;;;5112630;28;20047;-67
2022/01/04 08:51:39;;;;;;;2.78;1.63;;;14.30;61.00;;;;;;5112570;28;20054;-67
2022/01/04 08:54:06;;;;;;;4.50;1.77;;;14.30;60.90;;;;;;5112230;28;20173;-67
2022/01/04 08:56:33;;;;;;;4.43;2.50;;;14.30;61.00;;;;;;5112194;28;20475;-67
2022/01/04 08:58:59;;;;;;;2.22;1.48;;;14.30;61.00;;;;;;5112344;28;20071;-67
2022/01/04 09:01:25;;;;;;;3.58;1.60;;;14.30;61.00;;;;;;5112442;28;20052;-67
2022/01/04 09:03:51;;;;;;;3.40;2.10;;;14.30;61.00;;;;;;5112326;28;20368;-67
2022/01/04 09:06:17;;;;;;;3.42;1.70;;;14.30;61.00;;;;;;5112036;28;20141;-67
2022/01/04 09:08:43;;;;;;;3.35;1.45;;;14.30;61.00;;;;;;5111886;28;20043;-68
2022/01/04 09:11:10;;;;;;;3.85;1.38;;;14.30;61.00;;;;;;5111991;28;20135;-67
2022/01/04 09:13:40;;;;;;;3.22;1.08;;;14.40;61.00;;;;;;5111389;28;20135;-67
2022/01/04 09:18:46;;;;;;;2.78;0.63;;;15.00;59.80;;;;;;5089385;28;20436;-67
2022/01/04 09:21:16;;;;;;;1.83;0.63;;;15.60;58.50;;;;;;5088103;28;20488;-67
2022/01/04 09:23:43;;;;;;;3.00;0.93;;;16.30;56.80;;;;;;5088315;28;20058;-67
2022/01/04 09:26:09;;;;;;;1.88;0.95;;;17.10;54.80;;;;;;5088047;28;20044;-67
2022/01/04 09:28:35;;;;;;;2.40;0.38;;;18.00;52.80;;;;;;5087997;28;20051;-67
2022/01/04 09:31:03;;;;;;;1.33;0.55;;;18.70;51.00;;;;;;5089316;28;20044;-67
2022/01/04 09:33:30;;;;;;;2.65;0.40;;;19.40;49.40;;;;;;5087815;28;20491;-67
2022/01/04 09:35:55;;;;;;;2.10;0.50;;;20.00;48.20;;;;;;5087939;28;20503;-67
2022/01/04 09:38:21;;;;;;;0.90;0.32;;;20.30;47.60;;;;;;5087697;28;20123;-67
2022/01/04 09:40:49;;;;;;;2.83;0.70;;;20.40;47.50;;;;;;5089122;28;20072;-67
2022/01/04 09:43:15;;;;;;;1.73;0.40;;;20.40;47.40;;;;;;5087677;28;20119;-67
2022/01/04 09:45:41;;;;;;;1.77;0.50;;;20.40;47.30;;;;;;5087957;28;20089;-67
2022/01/04 09:48:07;;;;;;;1.35;0.50;;;20.50;47.10;;;;;;5087732;28;20044;-67
2022/01/04 09:50:35;;;;;;;1.77;0.30;;;20.60;46.90;;;;;;5087539;28;20044;-67
2022/01/04 09:53:01;;;;;;;1.95;0.40;;;20.60;46.60;;;;;;5088899;28;20079;-67
2022/01/04 09:55:30;;;;;;;2.28;0.63;;;20.70;46.40;;;;;;5088808;28;20039;-67
2022/01/04 09:57:56;;;;;;;1.33;0.30;;;20.70;46.20;;;;;;5087370;28;20059;-67
2022/01/04 10:00:23;;;;;;;1.38;0.20;;;20.70;46.10;;;;;;5087428;28;20039;-67
2022/01/04 10:02:50;;;;;;;1.50;0.88;;;20.60;46.10;;;;;;5088776;28;20036;-66
2022/01/04 10:08:01;;;;;;;2.45;0.47;;;20.50;46.20;;;;;;5130471;27;20358;-67
2022/01/04 10:10:27;;;;;;;2.65;0.30;;;20.40;47.20;;;;;;5128784;28;20093;-67
2022/01/04 10:15:48;;;;;;;2.13;0.28;;;20.20;46.60;;;;;;5156591;27;1169087;-67
2022/01/04 10:26:32;;;;;;;2.10;0.23;;;19.90;47.10;;;;;;5155822;27;1159087;-67
2022/01/04 10:28:58;;;;;;;1.50;0.40;;;19.40;47.70;;;;;;5153354;27;20082;-67
2022/01/04 10:31:24;;;;;;;1.30;0.40;;;19.20;48.10;;;;;;5153290;27;20122;-67
2022/01/04 10:33:54;;;;;;;1.33;0.30;;;19.10;48.40;;;;;;5153293;27;20037;-67
2022/01/04 10:36:21;;;;;;;1.17;0.50;;;19.00;48.60;;;;;;5153198;27;20050;-67
2022/01/04 10:38:48;;;;;;;1.20;0.45;;;18.90;48.80;;;;;;5152964;27;20090;-67
2022/01/04 10:44:06;;;;;;;1.15;0.30;;;18.70;49.00;;;;;;5130240;27;20358;-67
2022/01/04 10:49:18;;;;;;;2.70;0.38;;;18.50;49.70;;;;;;5088823;28;20359;-67
2022/01/04 10:51:45;;;;;;;2.30;0.50;;;18.20;50.40;;;;;;5079717;28;20123;-67
2022/01/04 10:54:19;;;;;;;0.95;0.20;;;18.00;50.70;;;;;;5077950;28;20082;-67
2022/01/04 10:56:45;;;;;;;1.58;0.45;;;17.80;50.90;;;;;;5070526;28;20076;-67
2022/01/04 10:59:12;;;;;;;2.10;0.38;;;17.70;51.40;;;;;;5080799;28;20032;-67
2022/01/04 11:01:40;;;;;;;1.13;0.30;;;17.50;51.60;;;;;;5078334;28;20064;-67
2022/01/04 11:04:13;;;;;;;1.55;0.45;;;17.40;52.00;;;;;;5075684;28;20380;-67
2022/01/04 11:06:38;;;;;;;1.08;0.20;;;17.30;52.20;;;;;;5075724;28;20036;-67
2022/01/04 11:09:05;;;;;;;1.35;0.20;;;17.50;52.00;;;;;;5082988;28;20052;-67
2022/01/04 11:11:31;;;;;;;1.95;0.30;;;17.80;51.40;;;;;;5069013;28;20099;-67
2022/01/04 11:13:58;;;;;;;0.82;0.20;;;18.00;50.70;;;;;;5066464;28;20044;-67
2022/01/04 11:16:26;;;;;;;0.80;0.30;;;18.30;50.10;;;;;;5059756;28;20069;-67
2022/01/04 11:18:57;;;;;;;0.70;0.28;;;18.60;49.50;;;;;;5050933;28;20519;-67
2022/01/04 11:21:26;;;;;;;0.60;0.20;;;19.00;48.70;;;;;;5071215;28;20045;-67
2022/01/04 11:23:54;;;;;;;1.80;0.20;;;19.60;47.50;;;;;;5051762;28;20123;-67
2022/01/04 11:26:20;;;;;;;1.33;0.30;;;20.50;45.80;;;;;;5054105;28;20079;-67
2022/01/04 11:28:48;;;;;;;1.02;0.35;;;21.20;44.20;;;;;;5053214;28;20068;-67
2022/01/04 11:36:41;;;;;;;1.95;0.38;;;21.80;43.00;;;;;;5136737;27;1157937;-68
2022/01/04 11:44:48;;;;;;;1.23;0.40;;;23.60;39.90;;;;;;5116325;27;20420;-68
2022/01/04 11:47:22;;;;;;;1.30;0.20;;;24.40;38.40;;;;;;5094822;28;20045;-67
2022/01/04 11:50:10;;;;;;;1.38;0.20;;;24.70;37.80;;;;;;5105186;28;20157;-67
2022/01/04 11:52:53;;;;;;;0.55;0.10;;;25.10;37.20;;;;;;5105613;28;20040;-67
2022/01/04 11:58:07;;;;;;;0.70;0.20;;;25.40;36.60;;;;;;5079045;27;20402;-67
2022/01/04 12:00:38;;;;;;;0.90;0.20;;;25.90;35.90;;;;;;5081493;28;20377;-68
2022/01/04 12:06:01;;;;;;;0.60;0.20;;;25.90;35.60;;;;;;5114410;27;20551;-67
2022/01/04 12:08:38;;;;;;;0.50;0.20;;;25.80;35.50;;;;;;5103880;28;20515;-67
2022/01/04 12:11:17;;;;;;;1.02;0.17;;;25.60;35.80;;;;;;5110197;28;20118;-68
2022/01/04 12:13:50;;;;;;;0.70;0.20;;;25.40;36.20;;;;;;5111051;28;20458;-67
2022/01/04 12:19:15;;;;;;;0.90;0.10;;;24.70;37.00;;;;;;5137294;27;20332;-68
2022/01/04 12:24:24;;;;;;;1.52;0.20;;;24.40;37.60;;;;;;5077535;28;20414;-67
2022/01/04 12:27:08;;;;;;;1.67;0.10;;;23.90;38.40;;;;;;5069691;28;20434;-67
2022/01/04 12:29:34;;;;;;;0.52;0.10;;;23.60;38.60;;;;;;5052477;28;20041;-68
2022/01/04 12:32:03;;;;;;;1.38;0.35;;;23.30;39.40;;;;;;5063251;28;20078;-63
2022/01/04 12:34:39;;;;;;;3.38;0.17;;;22.70;40.20;;;;;;5076262;28;20040;-71
2022/01/04 12:37:09;;;;;;;1.55;0.40;;;22.20;41.10;;;;;;5067310;28;20036;-70
2022/01/04 12:39:39;;;;;;;1.27;0.10;;;21.70;42.20;;;;;;5067744;28;20047;-72
2022/01/04 12:42:05;;;;;;;0.70;0.10;;;21.30;43.00;;;;;;5077753;28;20570;-68
2022/01/04 12:44:30;;;;;;;0.93;0.10;;;20.90;43.80;;;;;;5065774;28;20040;-68
2022/01/04 12:46:58;;;;;;;1.90;0.10;;;20.60;44.50;;;;;;5063834;28;20060;-68
2022/01/04 12:49:26;;;;;;;1.63;0.10;;;20.30;44.70;;;;;;5085569;28;20048;-68
2022/01/04 12:51:57;;;;;;;2.85;0.10;;;20.10;45.20;;;;;;5069320;28;20053;-71
2022/01/04 12:57:24;;;;;;;0.77;0.08;;;19.80;45.80;;;;;;5073532;27;20403;-68
2022/01/04 12:59:55;;;;;;;1.60;0.10;;;19.60;45.70;;;;;;5076199;28;20122;-67
2022/01/04 13:02:26;;;;;;;2.80;0.10;;;19.50;46.30;;;;;;5064005;28;20427;-66
2022/01/04 13:04:56;;;;;;;1.67;0.20;;;19.40;46.50;;;;;;5068105;28;20400;-68
2022/01/04 13:12:51;;;;;;;3.42;0.20;;;19.00;47.20;;;;;;5129598;27;20411;-67
2022/01/04 13:15:20;;;;;;;0.90;0.05;;;18.80;47.30;;;;;;5129126;28;20039;-67
2022/01/04 13:17:50;;;;;;;2.15;0.20;;;18.70;47.50;;;;;;5129271;28;20035;-67
2022/01/04 13:20:28;;;;;;;0.85;0.15;;;18.50;47.80;;;;;;5128946;28;20131;-67
2022/01/04 13:22:55;;;;;;;2.33;0.10;;;18.50;48.00;;;;;;5129091;28;20031;-67
2022/01/04 13:25:21;;;;;;;2.08;0.13;;;18.30;48.30;;;;;;5128739;28;20505;-67
2022/01/04 13:27:49;;;;;;;1.73;0.15;;;18.20;48.50;;;;;;5128713;28;20039;-67
2022/01/04 13:33:00;;;;;;;0.73;0.10;;;18.00;48.70;;;;;;5151043;27;20662;-67
2022/01/04 13:35:37;;;;;;;0.70;0.03;;;17.80;49.20;;;;;;5129291;28;20054;-67
2022/01/04 13:40:47;;;;;;;0.40;0.10;;;17.70;49.30;;;;;;5151018;27;20678;-67
2022/01/04 13:43:16;;;;;;;2.65;0.10;;;17.50;49.80;;;;;;5129177;28;20395;-67
2022/01/04 13:48:32;;;;;;;1.23;0.05;;;17.30;50.10;;;;;;5151070;27;20350;-67
2022/01/04 13:53:47;;;;;;;1.98;0.10;;;17.20;50.30;;;;;;5110240;27;20300;-67
2022/01/04 13:56:16;;;;;;;1.08;0.10;;;17.00;50.60;;;;;;5108516;28;20052;-67